Time;durP1;ratioP1;P1;durP2;ratioP2;P2;SDS_P1;SDS_P2;PMS_P1;PMS_P2;Temp;Humidity;BMP_temperature;BMP_pressure;BME280_temperature;BME280_humidity;BME280_pressure;Samples;Min_cycle;Max_cycle;Signal;HPM_P1;HPM_P2
2022/08/24 00:00:33;;;;;;;;;;;17.80;99.90;;;;;;4194525;28;19912;-62
2022/08/24 00:02:34;;;;;;;;;;;17.70;99.90;;;;;;4196110;28;19920;-63
2022/08/24 00:04:35;;;;;;;;;;;17.70;99.90;;;;;;4194198;28;20284;-63
2022/08/24 00:06:36;;;;;;;;;;;17.60;99.90;;;;;;4195902;28;20463;-62
2022/08/24 00:08:38;;;;;;;;;;;17.60;99.90;;;;;;4194269;28;20382;-62
2022/08/24 00:10:39;;;;;;;;;;;17.60;99.90;;;;;;4194032;28;19904;-62
2022/08/24 00:12:40;;;;;;;;;;;17.60;99.90;;;;;;4194264;28;20476;-62
2022/08/24 00:14:41;;;;;;;;;;;17.50;99.90;;;;;;4195595;28;19905;-63
2022/08/24 00:16:42;;;;;;;;;;;17.50;99.90;;;;;;4194086;28;19916;-63
2022/08/24 00:18:43;;;;;;;;;;;17.50;99.90;;;;;;4195187;28;20668;-63
2022/08/24 00:20:44;;;;;;;;;;;17.50;99.90;;;;;;4194339;28;20614;-62
2022/08/24 00:22:45;;;;;;;;;;;17.50;99.90;;;;;;4194594;28;19909;-62
2022/08/24 00:24:46;;;;;;;;;;;17.50;99.90;;;;;;4194869;28;19912;-62
2022/08/24 00:26:47;;;;;;;;;;;17.50;99.90;;;;;;4192746;28;20473;-61
2022/08/24 00:28:48;;;;;;;;;;;17.40;99.90;;;;;;4195315;28;19950;-60
2022/08/24 00:30:49;;;;;;;;;;;17.40;99.90;;;;;;4194105;28;19908;-62
2022/08/24 00:32:52;;;;;;;;;;;17.40;99.90;;;;;;4195245;28;19912;-62
2022/08/24 00:34:53;;;;;;;;;;;17.40;99.90;;;;;;4193930;28;19953;-62
2022/08/24 00:36:54;;;;;;;;;;;17.40;99.90;;;;;;4194812;28;19913;-62
2022/08/24 00:38:55;;;;;;;;;;;17.40;99.90;;;;;;4193546;28;19947;-62
2022/08/24 00:40:56;;;;;;;;;;;17.40;99.90;;;;;;4195266;28;19950;-61
2022/08/24 00:43:02;;;;;;;;;;;17.40;99.90;;;;;;4193773;28;20356;-62
2022/08/24 00:45:04;;;;;;;;;;;17.50;99.90;;;;;;4194742;28;19963;-62
2022/08/24 00:47:11;;;;;;;;;;;17.50;99.90;;;;;;4193806;28;19958;-62
2022/08/24 00:49:18;;;;;;;;;;;17.50;99.90;;;;;;4195094;28;20418;-62
2022/08/24 00:51:32;;;;;;;;;;;17.50;99.90;;;;;;4192798;28;19909;-61
2022/08/24 00:53:41;;;;;;;;;;;17.50;99.90;;;;;;4195021;28;19908;-62
2022/08/24 00:55:54;;;;;;;;;;;17.50;99.90;;;;;;4193702;28;19954;-62
2022/08/24 00:57:58;;;;;;;;;;;17.50;99.90;;;;;;4194982;28;19920;-62
2022/08/24 01:00:05;;;;;;;;;;;17.60;99.90;;;;;;4193719;28;20001;-62
2022/08/24 01:02:10;;;;;;;;;;;17.60;99.90;;;;;;4194910;28;19908;-61
2022/08/24 01:04:15;;;;;;;;;;;17.60;99.90;;;;;;4193228;28;19916;-62
2022/08/24 01:06:16;;;;;;;;;;;17.60;99.90;;;;;;4194587;28;19958;-62
2022/08/24 01:08:19;;;;;;;;;;;17.50;99.90;;;;;;4194007;28;20315;-62
2022/08/24 01:10:25;;;;;;;;;;;17.50;99.90;;;;;;4193966;28;19977;-62
2022/08/24 01:12:28;;;;;;;;;;;17.50;99.90;;;;;;4194301;28;19930;-62
2022/08/24 01:14:29;;;;;;;;;;;17.50;99.90;;;;;;4193768;28;20405;-62
2022/08/24 01:18:49;;;;;;;;;;;17.50;99.90;;;;;;4193808;28;20414;-62
2022/08/24 01:20:55;;;;;;;;;;;17.40;99.90;;;;;;4194327;28;19908;-61
2022/08/24 01:23:15;;;;;;;;;;;17.40;99.90;;;;;;4193070;28;19950;-62
2022/08/24 01:25:16;;;;;;;;;;;17.40;99.90;;;;;;4194269;28;19985;-62
2022/08/24 01:27:17;;;;;;;;;;;17.40;99.90;;;;;;4193461;28;19912;-62
2022/08/24 01:29:19;;;;;;;;;;;17.40;99.90;;;;;;4194775;28;19904;-62
2022/08/24 01:31:21;;;;;;;;;;;17.40;99.90;;;;;;4192843;28;20292;-62
2022/08/24 01:33:27;;;;;;;;;;;17.40;99.90;;;;;;4680036;22;19913;-61
2022/08/24 01:35:28;;;;;;;;;;;17.40;99.90;;;;;;4194608;28;19920;-61
2022/08/24 01:37:31;;;;;;;;;;;17.40;99.90;;;;;;4194418;28;19916;-61
2022/08/24 01:39:40;;;;;;;;;;;17.40;99.90;;;;;;4195177;28;19908;-62
2022/08/24 01:41:41;;;;;;;;;;;17.40;99.90;;;;;;4193890;28;20435;-62
2022/08/24 01:43:42;;;;;;;;;;;17.30;99.90;;;;;;4194887;28;19904;-62
2022/08/24 01:45:43;;;;;;;;;;;17.30;99.90;;;;;;4194193;28;19908;-61
2022/08/24 01:47:44;;;;;;;;;;;17.30;99.90;;;;;;4195259;28;19912;-62
2022/08/24 01:49:46;;;;;;;;;;;17.30;99.90;;;;;;4194090;28;20344;-62
2022/08/24 01:51:47;;;;;;;;;;;17.30;99.90;;;;;;4194598;28;19904;-62
2022/08/24 01:53:48;;;;;;;;;;;17.30;99.90;;;;;;4194052;28;20394;-62
2022/08/24 01:55:49;;;;;;;;;;;17.30;99.90;;;;;;4195245;28;19908;-62
2022/08/24 01:57:50;;;;;;;;;;;17.30;99.90;;;;;;4193941;28;20049;-62
2022/08/24 01:59:52;;;;;;;;;;;17.30;99.90;;;;;;4194366;28;19908;-61
2022/08/24 02:01:55;;;;;;;;;;;17.30;99.90;;;;;;4194118;28;19908;-61
2022/08/24 02:03:58;;;;;;;;;;;17.40;99.90;;;;;;4196119;28;19908;-62
2022/08/24 02:05:59;;;;;;;;;;;17.40;99.90;;;;;;4197458;28;19908;-62
2022/08/24 02:08:00;;;;;;;;;;;17.40;99.90;;;;;;4197777;28;19915;-62
2022/08/24 02:10:01;;;;;;;;;;;17.50;99.90;;;;;;4197976;28;19905;-61
2022/08/24 02:12:02;;;;;;;;;;;17.50;99.90;;;;;;4197355;28;19950;-62
2022/08/24 02:14:04;;;;;;;;;;;17.50;99.90;;;;;;4198064;28;19950;-61
2022/08/24 02:16:05;;;;;;;;;;;17.50;99.90;;;;;;4197195;28;19908;-61
2022/08/24 02:18:08;;;;;;;;;;;17.50;99.90;;;;;;4198209;28;19934;-61
2022/08/24 02:20:09;;;;;;;;;;;17.50;99.90;;;;;;4196922;28;19912;-61
2022/08/24 02:22:10;;;;;;;;;;;17.50;99.90;;;;;;4197909;28;20402;-62
2022/08/24 02:24:11;;;;;;;;;;;17.50;99.90;;;;;;4196670;28;19905;-62
2022/08/24 02:26:12;;;;;;;;;;;17.50;99.90;;;;;;4198054;28;19960;-63
2022/08/24 02:28:13;;;;;;;;;;;17.50;99.90;;;;;;4196902;28;20012;-61
2022/08/24 02:30:14;;;;;;;;;;;17.40;99.90;;;;;;4198027;28;19998;-61
2022/08/24 02:32:15;;;;;;;;;;;17.40;99.90;;;;;;4196802;28;20356;-62
2022/08/24 02:34:16;;;;;;;;;;;17.40;99.90;;;;;;4197171;28;19917;-63
2022/08/24 02:36:17;;;;;;;;;;;17.40;99.90;;;;;;4178866;28;19904;-62
2022/08/24 02:38:19;;;;;;;;;;;17.40;99.90;;;;;;4197272;28;19962;-63
2022/08/24 02:40:20;;;;;;;;;;;17.40;99.90;;;;;;4197193;28;19908;-61
2022/08/24 02:42:21;;;;;;;;;;;17.40;99.90;;;;;;4196883;28;19904;-63
2022/08/24 02:44:22;;;;;;;;;;;17.40;99.90;;;;;;4197720;28;20052;-61
2022/08/24 02:46:25;;;;;;;;;;;17.40;99.90;;;;;;4196737;28;20334;-62
2022/08/24 02:48:26;;;;;;;;;;;17.30;99.90;;;;;;4197645;28;20428;-63
2022/08/24 02:50:27;;;;;;;;;;;17.30;99.90;;;;;;4196569;28;20413;-62
2022/08/24 02:52:28;;;;;;;;;;;17.30;99.90;;;;;;4197760;28;19912;-63
2022/08/24 02:54:29;;;;;;;;;;;17.30;99.90;;;;;;4196585;28;20396;-62
2022/08/24 02:56:30;;;;;;;;;;;17.30;99.90;;;;;;4197663;28;20249;-62
2022/08/24 02:58:32;;;;;;;;;;;17.40;99.90;;;;;;4196451;28;19962;-61
2022/08/24 03:00:35;;;;;;;;;;;17.40;99.90;;;;;;4197705;28;19955;-61
2022/08/24 03:02:36;;;;;;;;;;;17.40;99.90;;;;;;4196434;28;19912;-61
2022/08/24 03:04:37;;;;;;;;;;;17.30;99.90;;;;;;4197375;28;20421;-62
2022/08/24 03:06:38;;;;;;;;;;;17.20;99.90;;;;;;4196457;28;19950;-62
2022/08/24 03:08:39;;;;;;;;;;;17.20;99.90;;;;;;4196829;28;19908;-62
2022/08/24 03:10:40;;;;;;;;;;;17.00;99.90;;;;;;4196851;28;19910;-63
2022/08/24 03:12:41;;;;;;;;;;;16.80;99.90;;;;;;4196570;28;19908;-62
2022/08/24 03:14:42;;;;;;;;;;;16.70;99.90;;;;;;4195858;28;19909;-62
2022/08/24 03:16:44;;;;;;;;;;;16.60;99.90;;;;;;4196215;28;19904;-63
2022/08/24 03:18:45;;;;;;;;;;;16.60;99.90;;;;;;4197342;28;20423;-63
2022/08/24 03:20:46;;;;;;;;;;;16.60;99.90;;;;;;4196087;28;19958;-63
2022/08/24 03:22:47;;;;;;;;;;;16.50;99.90;;;;;;4196974;28;20293;-63
2022/08/24 03:24:48;;;;;;;;;;;16.50;99.90;;;;;;4196038;28;19905;-63
2022/08/24 03:26:49;;;;;;;;;;;16.50;99.90;;;;;;4197191;28;19905;-62
2022/08/24 03:28:50;;;;;;;;;;;16.50;99.90;;;;;;4195951;28;19996;-63
2022/08/24 03:30:51;;;;;;;;;;;16.60;99.90;;;;;;4197115;28;20322;-64
2022/08/24 03:32:52;;;;;;;;;;;16.60;99.90;;;;;;4195980;28;19908;-63
2022/08/24 03:34:53;;;;;;;;;;;16.60;99.90;;;;;;4196411;28;19916;-63
2022/08/24 03:36:54;;;;;;;;;;;16.60;99.90;;;;;;4195849;28;19954;-62
2022/08/24 03:38:55;;;;;;;;;;;16.70;99.90;;;;;;4196469;28;19911;-63
2022/08/24 03:40:56;;;;;;;;;;;16.80;99.90;;;;;;4196166;28;19911;-62
2022/08/24 03:42:57;;;;;;;;;;;16.70;99.90;;;;;;4195546;28;19908;-62
2022/08/24 03:44:58;;;;;;;;;;;16.70;99.90;;;;;;4178505;28;20000;-62
2022/08/24 03:46:59;;;;;;;;;;;16.60;99.90;;;;;;4195686;28;20359;-63
2022/08/24 03:49:00;;;;;;;;;;;16.60;99.90;;;;;;4196837;28;19908;-64
2022/08/24 03:51:01;;;;;;;;;;;16.60;99.90;;;;;;4195506;28;20355;-62
2022/08/24 03:53:02;;;;;;;;;;;16.70;99.90;;;;;;4196772;28;19904;-63
2022/08/24 03:55:04;;;;;;;;;;;16.70;99.90;;;;;;4195383;28;19974;-62
2022/08/24 03:57:05;;;;;;;;;;;16.70;99.90;;;;;;4178695;28;19917;-62
2022/08/24 03:59:09;;;;;;;;;;;16.70;99.90;;;;;;4195354;28;19908;-63
2022/08/24 04:01:10;;;;;;;;;;;16.70;99.90;;;;;;4196602;28;19905;-63
2022/08/24 04:03:11;;;;;;;;;;;16.80;99.90;;;;;;4195409;28;19905;-62
2022/08/24 04:05:13;;;;;;;;;;;16.90;99.90;;;;;;4196256;28;19912;-62
2022/08/24 04:07:14;;;;;;;;;;;17.00;99.90;;;;;;4195410;28;19946;-62
2022/08/24 04:09:15;;;;;;;;;;;17.00;99.90;;;;;;4195501;28;19912;-62
2022/08/24 04:11:18;;;;;;;;;;;17.00;99.90;;;;;;4195704;28;19900;-62
2022/08/24 04:13:19;;;;;;;;;;;17.10;99.90;;;;;;4195713;28;19908;-63
2022/08/24 04:15:21;;;;;;;;;;;17.30;99.90;;;;;;4195972;28;19959;-62
2022/08/24 04:17:22;;;;;;;;;;;17.30;99.90;;;;;;4195079;28;20693;-62
2022/08/24 04:19:23;;;;;;;;;;;17.40;99.90;;;;;;4195385;28;20003;-62
2022/08/24 04:21:26;;;;;;;;;;;17.50;99.90;;;;;;4195084;28;19987;-62
2022/08/24 04:23:28;;;;;;;;;;;17.50;99.90;;;;;;4196095;28;19958;-62
2022/08/24 04:25:29;;;;;;;;;;;17.50;99.90;;;;;;4195034;28;19957;-62
2022/08/24 04:27:30;;;;;;;;;;;17.50;99.90;;;;;;4194302;28;19912;-62
2022/08/24 04:29:30;;;;;;;;;;;17.50;99.90;;;;;;4194834;28;20267;-62
2022/08/24 04:31:33;;;;;;;;;;;17.70;99.90;;;;;;4196101;28;19904;-61
2022/08/24 04:33:34;;;;;;;;;;;17.70;99.90;;;;;;4194623;28;20425;-61
2022/08/24 04:35:39;;;;;;;;;;;18.00;99.90;;;;;;4195912;28;19958;-62
2022/08/24 04:37:40;;;;;;;;;;;18.20;99.90;;;;;;4194715;28;19912;-62
2022/08/24 04:39:42;;;;;;;;;;;18.20;99.90;;;;;;4195379;28;19904;-62
2022/08/24 04:41:43;;;;;;;;;;;18.30;99.90;;;;;;4194512;28;20006;-63
2022/08/24 04:43:44;;;;;;;;;;;18.40;99.90;;;;;;4195197;28;20336;-62
2022/08/24 04:45:46;;;;;;;;;;;18.40;99.90;;;;;;4195106;28;19900;-62
2022/08/24 04:47:48;;;;;;;;;;;18.40;99.90;;;;;;4194789;28;19974;-62
2022/08/24 04:49:49;;;;;;;;;;;18.40;99.90;;;;;;4195020;28;20720;-61
2022/08/24 04:51:50;;;;;;;;;;;18.50;99.90;;;;;;4194266;28;19934;-61
2022/08/24 04:53:50;;;;;;;;;;;18.40;99.90;;;;;;4195500;28;19916;-61
2022/08/24 04:55:51;;;;;;;;;;;18.20;99.90;;;;;;4194530;28;20361;-61
2022/08/24 04:57:52;;;;;;;;;;;18.10;99.90;;;;;;4195506;28;19919;-62
2022/08/24 04:59:56;;;;;;;;;;;18.10;99.90;;;;;;4194307;28;19912;-61
2022/08/24 05:01:57;;;;;;;;;;;18.20;99.90;;;;;;4195380;28;19904;-62
2022/08/24 05:03:59;;;;;;;;;;;18.30;99.90;;;;;;4194270;28;19962;-62
2022/08/24 05:06:00;;;;;;;;;;;18.50;99.90;;;;;;4195446;28;19954;-62
2022/08/24 05:08:01;;;;;;;;;;;18.70;99.90;;;;;;4194360;28;20267;-61
2022/08/24 05:10:03;;;;;;;;;;;19.00;99.90;;;;;;4195193;28;19965;-61
2022/08/24 05:12:05;;;;;;;;;;;19.00;99.90;;;;;;4194275;28;19904;-62
2022/08/24 05:14:06;;;;;;;;;;;19.30;99.90;;;;;;4195038;28;20002;-62
2022/08/24 05:16:08;;;;;;;;;;;19.70;99.90;;;;;;4194521;28;19962;-63
2022/08/24 05:18:10;;;;;;;;;;;20.00;99.90;;;;;;4193487;28;19970;-62
2022/08/24 05:20:11;;;;;;;;;;;20.20;99.90;;;;;;4176526;28;20340;-63
2022/08/24 05:22:12;;;;;;;;;;;20.60;99.90;;;;;;4193690;28;19907;-63
2022/08/24 05:24:13;;;;;;;;;;;21.00;99.90;;;;;;4194863;28;19904;-63
2022/08/24 05:26:24;;;;;;;;;;;21.20;99.90;;;;;;4193910;28;20710;-63
2022/08/24 05:28:25;;;;;;;;;;;21.40;99.90;;;;;;4195158;28;19904;-63
2022/08/24 05:30:26;;;;;;;;;;;21.40;99.90;;;;;;4193926;28;19961;-63
2022/08/24 05:32:27;;;;;;;;;;;21.40;99.90;;;;;;4195092;28;19940;-62
2022/08/24 05:34:28;;;;;;;;;;;21.80;99.90;;;;;;4193791;28;20368;-63
2022/08/24 05:36:34;;;;;;;;;;;21.70;99.90;;;;;;4194662;28;19904;-63
2022/08/24 05:38:34;;;;;;;;;;;21.80;99.90;;;;;;4193613;28;19916;-62
2022/08/24 05:40:35;;;;;;;;;;;21.80;99.90;;;;;;4195146;28;19908;-64
2022/08/24 05:42:37;;;;;;;;;;;21.60;99.90;;;;;;4194014;28;20268;-61
2022/08/24 05:44:37;;;;;;;;;;;21.30;99.90;;;;;;4194871;28;19934;-62
2022/08/24 05:46:38;;;;;;;;;;;21.70;99.90;;;;;;4193865;28;20471;-62
2022/08/24 05:48:40;;;;;;;;;;;21.90;99.90;;;;;;4194349;28;19905;-61
2022/08/24 05:50:41;;;;;;;;;;;22.10;99.90;;;;;;4194243;28;19905;-62
2022/08/24 05:52:42;;;;;;;;;;;22.10;99.90;;;;;;4193835;28;19954;-61
2022/08/24 05:54:43;;;;;;;;;;;22.30;99.90;;;;;;4194115;28;19908;-61
2022/08/24 05:56:44;;;;;;;;;;;22.20;99.90;;;;;;4194019;28;19915;-61
2022/08/24 05:58:45;;;;;;;;;;;22.20;99.90;;;;;;4194939;28;19917;-62
2022/08/24 06:00:46;;;;;;;;;;;22.20;99.90;;;;;;4193818;28;19991;-61
2022/08/24 06:02:47;;;;;;;;;;;22.10;99.90;;;;;;4194798;28;20367;-61
2022/08/24 06:04:48;;;;;;;;;;;22.00;99.90;;;;;;4193596;28;19904;-62
2022/08/24 06:06:49;;;;;;;;;;;22.10;99.90;;;;;;4194928;28;19904;-63
2022/08/24 06:08:52;;;;;;;;;;;22.10;99.90;;;;;;4193593;28;20370;-62
2022/08/24 06:10:52;;;;;;;;;;;22.10;99.90;;;;;;4194639;28;19920;-63
2022/08/24 06:12:53;;;;;;;;;;;21.90;99.90;;;;;;4193755;28;19950;-63
2022/08/24 06:14:54;;;;;;;;;;;21.40;99.90;;;;;;4194054;28;19905;-63
2022/08/24 06:16:55;;;;;;;;;;;21.00;99.90;;;;;;4193353;28;20348;-62
2022/08/24 06:18:56;;;;;;;;;;;20.60;99.90;;;;;;4175818;28;19916;-62
2022/08/24 06:20:58;;;;;;;;;;;20.20;99.90;;;;;;4193240;28;20371;-62
2022/08/24 06:22:59;;;;;;;;;;;19.80;99.90;;;;;;4194051;28;20360;-63
2022/08/24 06:27:20;;;;;;;;;;;19.40;99.90;;;;;;4194520;28;19974;-63
2022/08/24 06:29:21;;;;;;;;;;;19.10;99.90;;;;;;4194125;28;19909;-64
2022/08/24 06:31:23;;;;;;;;;;;19.00;99.90;;;;;;4192998;28;19962;-63
2022/08/24 06:33:24;;;;;;;;;;;18.80;99.90;;;;;;4194074;28;20425;-62
2022/08/24 06:35:25;;;;;;;;;;;18.70;99.90;;;;;;4192958;28;19905;-62
2022/08/24 06:37:26;;;;;;;;;;;18.60;99.90;;;;;;4194736;28;20303;-62
2022/08/24 06:39:27;;;;;;;;;;;18.60;99.90;;;;;;4193347;28;20426;-62
2022/08/24 06:41:28;;;;;;;;;;;18.50;99.90;;;;;;4194115;28;19904;-62
2022/08/24 06:43:29;;;;;;;;;;;18.50;99.90;;;;;;4193581;28;19964;-63
2022/08/24 06:45:31;;;;;;;;;;;18.60;99.90;;;;;;4194772;28;20330;-63
2022/08/24 06:47:32;;;;;;;;;;;18.60;99.90;;;;;;4193158;28;20415;-62
2022/08/24 06:49:33;;;;;;;;;;;18.60;99.90;;;;;;4194305;28;19954;-63
2022/08/24 06:51:34;;;;;;;;;;;18.50;99.90;;;;;;4195733;28;19908;-63
2022/08/24 06:53:36;;;;;;;;;;;18.50;99.90;;;;;;4196865;28;19932;-62
2022/08/24 06:55:36;;;;;;;;;;;18.50;99.90;;;;;;4196776;28;19958;-63
2022/08/24 06:57:37;;;;;;;;;;;18.50;99.90;;;;;;4196258;28;19916;-63
2022/08/24 06:59:41;;;;;;;;;;;18.50;99.90;;;;;;4196810;28;19909;-63
2022/08/24 07:01:43;;;;;;;;;;;18.50;99.90;;;;;;4196320;28;19954;-62
2022/08/24 07:03:44;;;;;;;;;;;18.60;99.90;;;;;;4197072;28;19954;-63
2022/08/24 07:05:52;;;;;;;;;;;18.60;99.90;;;;;;4195776;28;19916;-64
2022/08/24 07:07:53;;;;;;;;;;;18.70;99.90;;;;;;4197237;28;19989;-64
2022/08/24 07:09:54;;;;;;;;;;;18.80;99.90;;;;;;4196206;28;19911;-63
2022/08/24 07:11:55;;;;;;;;;;;18.90;99.90;;;;;;4196703;28;19912;-62
2022/08/24 07:13:56;;;;;;;;;;;19.00;99.90;;;;;;4195814;28;19954;-62
2022/08/24 07:15:57;;;;;;;;;;;19.00;99.90;;;;;;4197085;28;19905;-63
2022/08/24 07:17:59;;;;;;;;;;;19.10;99.90;;;;;;4195822;28;19920;-63
2022/08/24 07:20:01;;;;;;;;;;;19.20;99.90;;;;;;4196416;28;19965;-62
2022/08/24 07:22:02;;;;;;;;;;;19.30;99.90;;;;;;4195603;28;19962;-64
2022/08/24 07:24:03;;;;;;;;;;;19.40;99.90;;;;;;4196102;28;19987;-63
2022/08/24 07:26:11;;;;;;;;;;;19.40;99.90;;;;;;4195841;28;19945;-64
2022/08/24 07:28:12;;;;;;;;;;;19.50;99.90;;;;;;4196052;28;19962;-62
2022/08/24 07:30:14;;;;;;;;;;;19.50;99.90;;;;;;4195895;28;19972;-62
2022/08/24 07:32:15;;;;;;;;;;;19.60;99.90;;;;;;4196261;28;19954;-63
2022/08/24 07:34:16;;;;;;;;;;;19.60;99.90;;;;;;4195276;28;20338;-63
2022/08/24 07:36:18;;;;;;;;;;;19.70;99.90;;;;;;4195534;28;20002;-63
2022/08/24 07:38:19;;;;;;;;;;;19.80;99.90;;;;;;4196482;28;19912;-62
2022/08/24 07:40:21;;;;;;;;;;;19.80;99.90;;;;;;4195403;28;19958;-62
2022/08/24 07:42:23;;;;;;;;;;;20.00;99.90;;;;;;4196744;28;20382;-63
2022/08/24 07:44:24;;;;;;;;;;;19.90;99.90;;;;;;4195413;28;19935;-62
2022/08/24 07:46:25;;;;;;;;;;;19.90;99.90;;;;;;4196806;28;19954;-63
2022/08/24 07:48:27;;;;;;;;;;;19.80;99.90;;;;;;4195427;28;20054;-63
2022/08/24 07:50:28;;;;;;;;;;;19.80;99.90;;;;;;4195549;28;19912;-63
2022/08/24 07:52:30;;;;;;;;;;;19.90;99.90;;;;;;4195304;28;19978;-62
2022/08/24 07:54:31;;;;;;;;;;;19.90;99.90;;;;;;4195887;28;19966;-62
2022/08/24 07:56:33;;;;;;;;;;;19.90;99.90;;;;;;4195308;28;19912;-62
2022/08/24 07:58:34;;;;;;;;;;;20.00;99.90;;;;;;4196138;28;19920;-63
2022/08/24 08:00:35;;;;;;;;;;;20.00;99.90;;;;;;4194897;28;19908;-62
2022/08/24 08:02:37;;;;;;;;;;;20.00;99.90;;;;;;4194762;28;19981;-63
2022/08/24 08:04:38;;;;;;;;;;;20.00;99.90;;;;;;4195467;28;19961;-63
2022/08/24 08:06:42;;;;;;;;;;;20.00;99.90;;;;;;4193908;28;19908;-62
2022/08/24 08:08:44;;;;;;;;;;;20.00;99.90;;;;;;4194673;28;19939;-63
2022/08/24 08:10:45;;;;;;;;;;;20.00;99.90;;;;;;4194349;28;19904;-63
2022/08/24 08:12:46;;;;;;;;;;;20.10;99.90;;;;;;4195011;28;19908;-65
2022/08/24 08:14:47;;;;;;;;;;;20.10;99.90;;;;;;4194870;28;19905;-64
2022/08/24 08:16:48;;;;;;;;;;;20.10;99.90;;;;;;4195236;28;19938;-63
2022/08/24 08:18:49;;;;;;;;;;;20.10;99.90;;;;;;4193946;28;19912;-60
2022/08/24 08:20:50;;;;;;;;;;;20.10;99.90;;;;;;4194875;28;19954;-61
2022/08/24 08:25:11;;;;;;;;;;;20.10;99.90;;;;;;4195234;28;20354;-62
2022/08/24 08:27:15;;;;;;;;;;;20.10;99.90;;;;;;4194138;28;19931;-62
2022/08/24 08:29:17;;;;;;;;;;;20.20;99.90;;;;;;4195160;28;19908;-62
2022/08/24 08:31:18;;;;;;;;;;;20.20;99.90;;;;;;4193957;28;19904;-62
2022/08/24 08:33:19;;;;;;;;;;;20.30;99.90;;;;;;4195627;28;19908;-62
2022/08/24 08:35:21;;;;;;;;;;;20.30;99.90;;;;;;4194247;28;20352;-61
2022/08/24 08:37:22;;;;;;;;;;;20.40;99.90;;;;;;4194717;28;19954;-61
2022/08/24 08:39:24;;;;;;;;;;;20.40;99.90;;;;;;4193827;28;19920;-62
2022/08/24 08:41:29;;;;;;;;;;;20.50;99.90;;;;;;4194489;28;20425;-62
2022/08/24 08:43:31;;;;;;;;;;;20.50;99.90;;;;;;4194265;28;20340;-62
2022/08/24 08:45:58;;;;;;;;;;;20.70;99.90;;;;;;4194501;28;19904;-62
2022/08/24 08:48:14;;;;;;;;;;;20.70;99.90;;;;;;4194548;28;20013;-61
2022/08/24 08:50:30;;;;;;;;;;;20.70;99.90;;;;;;4194686;28;20394;-63
2022/08/24 08:52:47;;;;;;;;;;;20.70;99.90;;;;;;4193629;28;19924;-62
2022/08/24 08:55:14;;;;;;;;;;;20.60;99.90;;;;;;4195301;28;19904;-62
2022/08/24 08:57:31;;;;;;;;;;;20.70;99.90;;;;;;4191119;28;19969;-62
2022/08/24 08:59:58;;;;;;;;;;;20.70;99.90;;;;;;4194871;28;19942;-62
2022/08/24 09:01:59;;;;;;;;;;;20.70;99.90;;;;;;4170209;28;19912;-63
2022/08/24 09:04:03;;;;;;;;;;;20.70;99.90;;;;;;4195252;28;19905;-63
2022/08/24 09:06:22;;;;;;;;;;;20.70;99.90;;;;;;4193839;28;19908;-62
2022/08/24 09:08:32;;;;;;;;;;;20.60;99.90;;;;;;4195491;28;19908;-62
2022/08/24 09:11:12;;;;;;;;;;;20.60;99.90;;;;;;4193843;28;20420;-62
2022/08/24 09:13:26;;;;;;;;;;;20.60;99.90;;;;;;4143545;28;19906;-62
2022/08/24 09:15:34;;;;;;;;;;;20.60;99.90;;;;;;4141870;28;19913;-62
2022/08/24 09:17:44;;;;;;;;;;;20.50;99.90;;;;;;4148930;28;20337;-62
2022/08/24 09:20:06;;;;;;;;;;;20.50;99.90;;;;;;4193443;28;19912;-63
2022/08/24 09:22:12;;;;;;;;;;;20.50;99.90;;;;;;4194837;28;19950;-63
2022/08/24 09:24:19;;;;;;;;;;;20.40;99.90;;;;;;4193946;28;20314;-62
2022/08/24 09:26:31;;;;;;;;;;;20.40;99.90;;;;;;4194935;28;19909;-62
2022/08/24 09:28:46;;;;;;;;;;;20.40;99.90;;;;;;4193841;28;19931;-62
2022/08/24 09:30:57;;;;;;;;;;;20.50;99.90;;;;;;4194490;28;19908;-64
2022/08/24 09:33:05;;;;;;;;;;;20.60;99.90;;;;;;4194131;28;19935;-62
2022/08/24 09:35:10;;;;;;;;;;;20.70;99.90;;;;;;4194552;28;19916;-62
2022/08/24 09:37:31;;;;;;;;;;;20.70;99.90;;;;;;4193732;28;19912;-63
2022/08/24 09:39:35;;;;;;;;;;;20.80;99.90;;;;;;4194026;28;20433;-62
2022/08/24 09:41:37;;;;;;;;;;;20.90;99.90;;;;;;4193908;28;19904;-64
2022/08/24 09:44:05;;;;;;;;;;;21.00;99.90;;;;;;4194691;28;19908;-63
2022/08/24 09:46:15;;;;;;;;;;;21.10;99.90;;;;;;4169460;28;20317;-64
2022/08/24 09:48:16;;;;;;;;;;;21.10;99.90;;;;;;4193899;28;19916;-63
2022/08/24 09:50:35;;;;;;;;;;;21.20;99.90;;;;;;4192937;28;19909;-62
2022/08/24 09:52:36;;;;;;;;;;;21.20;99.90;;;;;;4194188;28;19912;-63
2022/08/24 09:54:43;;;;;;;;;;;21.30;99.90;;;;;;4193837;28;19908;-63
2022/08/24 09:56:47;;;;;;;;;;;21.40;99.90;;;;;;4193970;28;19950;-62
2022/08/24 09:59:10;;;;;;;;;;;21.50;99.90;;;;;;4193264;28;19961;-62
2022/08/24 10:01:14;;;;;;;;;;;21.60;99.90;;;;;;4165099;28;19969;-63
2022/08/24 10:03:40;;;;;;;;;;;21.70;99.90;;;;;;4192937;28;19923;-62
2022/08/24 10:05:59;;;;;;;;;;;22.00;99.90;;;;;;4176001;28;19951;-62
2022/08/24 10:08:03;;;;;;;;;;;22.20;99.90;;;;;;4175640;28;19908;-63
2022/08/24 10:10:10;;;;;;;;;;;22.30;99.90;;;;;;4175903;28;19909;-62
2022/08/24 10:12:12;;;;;;;;;;;22.20;99.90;;;;;;4193944;28;19951;-62
2022/08/24 10:14:23;;;;;;;;;;;22.30;99.90;;;;;;4194271;28;19912;-61
2022/08/24 10:16:43;;;;;;;;;;;22.40;99.90;;;;;;4193095;28;19908;-62
2022/08/24 10:19:07;;;;;;;;;;;22.50;99.90;;;;;;4192946;28;19962;-62
2022/08/24 10:21:12;;;;;;;;;;;22.50;99.90;;;;;;4193613;28;19913;-62
2022/08/24 10:23:31;;;;;;;;;;;22.60;99.90;;;;;;4193681;28;19904;-62
2022/08/24 10:25:47;;;;;;;;;;;22.80;99.90;;;;;;4196375;28;20009;-63
2022/08/24 10:27:57;;;;;;;;;;;23.00;99.90;;;;;;4196433;28;19958;-62
2022/08/24 10:30:13;;;;;;;;;;;23.20;99.90;;;;;;4197588;28;20393;-63
2022/08/24 10:32:37;;;;;;;;;;;23.10;99.90;;;;;;4196434;28;19908;-62
2022/08/24 10:34:40;;;;;;;;;;;23.20;99.90;;;;;;4168242;28;19923;-62
2022/08/24 10:36:48;;;;;;;;;;;23.30;99.90;;;;;;4196094;28;19970;-63
2022/08/24 10:41:40;;;;;;;;;;;23.30;99.90;;;;;;4196535;28;19965;-62
2022/08/24 10:43:53;;;;;;;;;;;23.50;99.90;;;;;;4197587;28;19946;-62
2022/08/24 10:45:54;;;;;;;;;;;23.70;99.90;;;;;;4196127;28;19905;-62
2022/08/24 10:48:13;;;;;;;;;;;23.90;99.90;;;;;;4196743;28;19904;-61
2022/08/24 10:50:20;;;;;;;;;;;24.00;99.90;;;;;;4196199;28;20348;-62
2022/08/24 10:52:20;;;;;;;;;;;24.00;99.90;;;;;;4197000;28;19905;-62
2022/08/24 10:54:22;;;;;;;;;;;24.10;99.90;;;;;;4196291;28;19904;-62
2022/08/24 10:56:34;;;;;;;;;;;24.30;99.90;;;;;;4197444;28;19904;-62
2022/08/24 10:58:54;;;;;;;;;;;24.30;99.90;;;;;;4196298;28;19962;-62
2022/08/24 11:01:10;;;;;;;;;;;24.30;99.90;;;;;;4197333;28;19966;-62
2022/08/24 11:03:20;;;;;;;;;;;24.30;99.90;;;;;;4196391;28;20364;-62
2022/08/24 11:05:33;;;;;;;;;;;24.40;99.90;;;;;;4197096;28;19935;-62
2022/08/24 11:07:35;;;;;;;;;;;24.30;99.90;;;;;;4195929;28;19947;-62
2022/08/24 11:09:52;;;;;;;;;;;24.10;99.90;;;;;;4179097;28;20293;-62
2022/08/24 11:11:53;;;;;;;;;;;24.10;99.90;;;;;;4195931;28;19904;-62
2022/08/24 11:14:05;;;;;;;;;;;24.10;99.90;;;;;;4197118;28;19919;-62
2022/08/24 11:16:06;;;;;;;;;;;24.20;99.90;;;;;;4195931;28;19908;-62
2022/08/24 11:18:07;;;;;;;;;;;24.50;99.90;;;;;;4178442;28;19915;-62
2022/08/24 11:20:24;;;;;;;;;;;24.70;99.90;;;;;;4195152;28;19914;-62
2022/08/24 11:22:31;;;;;;;;;;;24.80;99.90;;;;;;4196228;28;19909;-62
2022/08/24 11:24:42;;;;;;;;;;;24.80;99.90;;;;;;4195553;28;20322;-63
2022/08/24 11:26:53;;;;;;;;;;;24.60;99.90;;;;;;4196871;28;20924;-63
2022/08/24 11:28:59;;;;;;;;;;;24.70;99.90;;;;;;4177595;28;20376;-64
2022/08/24 11:31:02;;;;;;;;;;;24.60;99.90;;;;;;4196805;28;19908;-64
2022/08/24 11:33:04;;;;;;;;;;;24.70;99.90;;;;;;4195848;28;19916;-63
2022/08/24 11:35:16;;;;;;;;;;;24.70;99.90;;;;;;4196264;28;19970;-64
2022/08/24 11:37:21;;;;;;;;;;;24.70;99.90;;;;;;4195513;28;20918;-63
2022/08/24 11:39:26;;;;;;;;;;;24.90;99.90;;;;;;4196443;28;19920;-62
2022/08/24 11:41:30;;;;;;;;;;;25.00;99.90;;;;;;4195174;28;19973;-62
2022/08/24 11:43:46;;;;;;;;;;;25.10;99.90;;;;;;4196408;28;20360;-62
2022/08/24 11:45:59;;;;;;;;;;;25.20;99.90;;;;;;4194739;28;20384;-64
2022/08/24 11:48:03;;;;;;;;;;;25.20;99.90;;;;;;4196555;28;20245;-63
2022/08/24 11:50:15;;;;;;;;;;;25.30;99.90;;;;;;4195388;28;19966;-63
2022/08/24 11:52:16;;;;;;;;;;;25.40;99.90;;;;;;4196423;28;20358;-63
2022/08/24 11:54:30;;;;;;;;;;;25.40;99.90;;;;;;4195244;28;19912;-63
2022/08/24 11:56:37;;;;;;;;;;;25.30;99.90;;;;;;4196304;28;20409;-63
2022/08/24 11:58:44;;;;;;;;;;;25.20;99.90;;;;;;4195276;28;19916;-63
2022/08/24 12:00:46;;;;;;;;;;;25.20;99.90;;;;;;4196332;28;20245;-62
2022/08/24 12:02:47;;;;;;;;;;;25.20;99.90;;;;;;4195478;28;19905;-62
2022/08/24 12:04:54;;;;;;;;;;;25.30;99.90;;;;;;4195773;28;19996;-62
2022/08/24 12:06:58;;;;;;;;;;;25.30;99.90;;;;;;4195536;28;20337;-62
2022/08/24 12:09:06;;;;;;;;;;;25.40;99.90;;;;;;4195542;28;19908;-62
2022/08/24 12:11:10;;;;;;;;;;;25.50;99.90;;;;;;4195467;28;19912;-62